createdAt,value
2023-05-19T00:00:10.771Z,9.56
2023-05-19T00:01:10.708Z,9.56
2023-05-19T00:02:10.722Z,9.59
2023-05-19T00:03:10.758Z,9.58
2023-05-19T00:04:10.664Z,9.61
2023-05-19T00:05:10.656Z,9.62
2023-05-19T00:06:10.722Z,9.64
2023-05-19T00:07:10.604Z,9.65
2023-05-19T00:08:10.594Z,9.66
2023-05-19T00:09:10.619Z,9.66
2023-05-19T00:10:10.580Z,9.62
2023-05-19T00:11:10.580Z,9.64
2023-05-19T00:12:10.596Z,9.64
2023-05-19T00:13:10.683Z,9.64
2023-05-19T00:14:10.502Z,9.66
2023-05-19T00:15:10.493Z,9.64
2023-05-19T00:16:10.548Z,9.64
2023-05-19T00:17:10.465Z,9.65
2023-05-19T00:18:10.466Z,9.65
2023-05-19T00:19:10.750Z,9.64
2023-05-19T00:20:10.449Z,9.61
2023-05-19T00:21:10.482Z,9.62
2023-05-19T00:22:10.392Z,9.62
2023-05-19T00:23:10.504Z,9.62
2023-05-19T00:24:10.394Z,9.61
2023-05-19T00:25:10.390Z,9.59
2023-05-19T00:26:10.356Z,9.59
2023-05-19T00:27:10.322Z,9.58
2023-05-19T00:28:10.330Z,9.55
2023-05-19T00:29:10.301Z,9.54
2023-05-19T00:30:10.325Z,9.55
2023-05-19T00:31:10.275Z,9.55
2023-05-19T00:32:10.387Z,9.51
2023-05-19T00:33:10.275Z,9.51
2023-05-19T00:34:10.244Z,9.50
2023-05-19T00:35:10.234Z,9.48
2023-05-19T00:36:10.242Z,9.48
2023-05-19T00:37:10.189Z,9.50
2023-05-19T00:38:10.204Z,9.50
2023-05-19T00:39:10.182Z,9.48
2023-05-19T00:40:10.177Z,9.48
2023-05-19T00:41:10.154Z,9.46
2023-05-19T00:42:10.125Z,9.44
2023-05-19T00:43:10.171Z,9.41
2023-05-19T00:44:10.105Z,9.37
2023-05-19T00:45:10.136Z,9.34
2023-05-19T00:46:10.147Z,9.31
2023-05-19T00:47:10.093Z,9.32
2023-05-19T00:48:10.133Z,9.31
2023-05-19T00:49:10.021Z,9.31
2023-05-19T00:50:10.108Z,9.32
2023-05-19T00:51:10.009Z,9.31
2023-05-19T00:52:09.999Z,9.29
2023-05-19T00:53:10.021Z,9.28
2023-05-19T00:54:09.998Z,9.25
2023-05-19T00:55:09.961Z,9.25
2023-05-19T00:56:09.938Z,9.23
2023-05-19T00:57:09.928Z,9.23
2023-05-19T00:58:09.931Z,9.25
2023-05-19T00:59:09.921Z,9.28
2023-05-19T01:00:09.899Z,9.28
2023-05-19T01:01:09.971Z,9.28
2023-05-19T01:02:09.863Z,9.29
2023-05-19T01:03:09.961Z,9.31
2023-05-19T01:04:09.905Z,9.28
2023-05-19T01:05:09.819Z,9.28
2023-05-19T01:06:09.847Z,9.26
2023-05-19T01:08:37.510Z,9.23
2023-05-19T01:08:42.919Z,9.19
2023-05-19T01:09:42.913Z,9.19
2023-05-19T01:10:42.897Z,9.19
2023-05-19T01:11:42.997Z,9.18
2023-05-19T01:12:42.881Z,9.18
2023-05-19T01:13:42.857Z,9.18
2023-05-19T01:14:42.840Z,9.21
2023-05-19T01:15:42.839Z,9.21
2023-05-19T01:16:42.897Z,9.23
2023-05-19T01:17:42.892Z,9.22
2023-05-19T01:18:42.826Z,9.22
2023-05-19T01:19:42.770Z,9.21
2023-05-19T01:20:42.770Z,9.21
2023-05-19T01:21:42.748Z,9.21
2023-05-19T01:22:42.842Z,9.16
2023-05-19T01:23:42.703Z,9.16
2023-05-19T01:24:42.716Z,9.16
2023-05-19T01:25:42.737Z,9.14
2023-05-19T01:26:42.685Z,9.14
2023-05-19T01:27:42.661Z,9.13
2023-05-19T01:28:42.682Z,9.13
2023-05-19T01:29:42.647Z,9.10
2023-05-19T01:30:42.666Z,9.11
2023-05-19T01:31:42.676Z,9.11
2023-05-19T01:32:42.671Z,9.11
2023-05-19T01:33:42.568Z,9.13
2023-05-19T01:34:42.550Z,9.13
2023-05-19T01:35:42.547Z,9.16
2023-05-19T01:36:42.553Z,9.16
2023-05-19T01:37:42.555Z,9.18
2023-05-19T01:38:42.515Z,9.18
2023-05-19T01:39:42.539Z,9.22
2023-05-19T01:40:42.510Z,9.19
2023-05-19T01:41:42.476Z,9.19
2023-05-19T01:42:42.462Z,9.19
2023-05-19T01:43:42.446Z,9.18
2023-05-19T01:44:42.474Z,9.13
2023-05-19T01:45:42.509Z,9.10
2023-05-19T01:46:42.413Z,9.08
2023-05-19T01:47:42.411Z,9.06
2023-05-19T01:48:42.404Z,9.03
2023-05-19T01:49:42.389Z,9.02
2023-05-19T01:50:42.354Z,9.00
2023-05-19T01:51:42.345Z,9.00
2023-05-19T01:52:42.331Z,9.02
2023-05-19T01:53:42.322Z,9.02
2023-05-19T01:54:42.328Z,9.02
2023-05-19T01:55:42.297Z,9.00
2023-05-19T01:56:42.278Z,9.02
2023-05-19T01:57:42.278Z,9.00
2023-05-19T01:58:42.296Z,9.02
2023-05-19T01:59:42.250Z,9.00
2023-05-19T02:00:42.223Z,9.00
2023-05-19T02:01:42.244Z,9.00
2023-05-19T02:02:42.227Z,9.00
2023-05-19T02:03:42.213Z,9.02
2023-05-19T02:04:42.243Z,9.02
2023-05-19T02:05:42.153Z,9.02
2023-05-19T02:06:42.134Z,9.03
2023-05-19T02:07:42.132Z,9.03
2023-05-19T02:08:42.154Z,9.02
2023-05-19T02:09:42.098Z,8.99
2023-05-19T02:10:42.089Z,8.99
2023-05-19T02:11:42.082Z,8.99
2023-05-19T02:12:42.068Z,8.99
2023-05-19T02:13:42.071Z,9.00
2023-05-19T02:14:42.050Z,9.00
2023-05-19T02:15:42.207Z,8.99
2023-05-19T02:16:42.025Z,8.99
2023-05-19T02:17:42.024Z,8.95
2023-05-19T02:18:42.120Z,8.92
2023-05-19T02:19:41.985Z,8.94
2023-05-19T02:20:41.958Z,8.89
2023-05-19T02:21:41.930Z,8.85
2023-05-19T02:22:41.927Z,8.85
2023-05-19T02:23:41.911Z,8.84
2023-05-19T02:24:41.923Z,8.82
2023-05-19T02:25:41.894Z,8.81
2023-05-19T02:26:41.873Z,8.76
2023-05-19T02:27:41.869Z,8.76
2023-05-19T02:28:41.847Z,8.78
2023-05-19T02:29:41.868Z,8.74
2023-05-19T02:30:41.801Z,8.76
2023-05-19T02:31:41.854Z,8.73
2023-05-19T02:32:41.805Z,8.70
2023-05-19T02:33:41.765Z,8.67
2023-05-19T02:34:41.773Z,8.66
2023-05-19T02:35:41.748Z,8.66
2023-05-19T02:36:41.724Z,8.63
2023-05-19T02:37:41.709Z,8.60
2023-05-19T02:38:41.787Z,8.60
2023-05-19T02:39:41.731Z,8.58
2023-05-19T02:40:41.673Z,8.56
2023-05-19T02:41:41.688Z,8.51
2023-05-19T02:42:41.647Z,8.46
2023-05-19T02:43:41.682Z,8.44
2023-05-19T02:44:41.612Z,8.42
2023-05-19T02:45:41.628Z,8.42
2023-05-19T02:46:41.635Z,8.42
2023-05-19T02:47:41.642Z,8.38
2023-05-19T02:48:41.574Z,8.34
2023-05-19T02:49:41.575Z,8.30
2023-05-19T02:50:41.573Z,8.28
2023-05-19T02:51:41.568Z,8.27
2023-05-19T02:52:41.529Z,8.23
2023-05-19T02:53:41.525Z,8.20
2023-05-19T02:54:41.516Z,8.19
2023-05-19T02:55:41.478Z,8.20
2023-05-19T02:56:41.497Z,8.20
2023-05-19T02:57:41.477Z,8.19
2023-05-19T02:58:41.423Z,8.18
2023-05-19T02:59:41.411Z,8.18
2023-05-19T03:00:41.417Z,8.13
2023-05-19T03:01:41.437Z,8.12
2023-05-19T03:02:41.485Z,8.12
2023-05-19T03:03:41.497Z,8.12
2023-05-19T03:04:41.352Z,8.12
2023-05-19T03:05:41.369Z,8.12
2023-05-19T03:06:41.334Z,8.09
2023-05-19T03:07:41.337Z,8.08
2023-05-19T03:08:42.437Z,8.05
2023-05-19T03:09:41.282Z,8.00
2023-05-19T03:12:08.895Z,8.00
2023-05-19T03:12:14.268Z,7.95
2023-05-19T03:13:14.314Z,7.95
2023-05-19T03:14:14.250Z,7.98
2023-05-19T03:15:14.203Z,7.97
2023-05-19T03:16:14.296Z,7.97
2023-05-19T03:17:14.255Z,8.00
2023-05-19T03:18:14.220Z,7.98
2023-05-19T03:19:14.214Z,7.97
2023-05-19T03:20:14.144Z,7.94
2023-05-19T03:21:14.140Z,7.94
2023-05-19T03:22:14.122Z,7.93
2023-05-19T03:23:14.118Z,7.91
2023-05-19T03:24:14.137Z,7.91
2023-05-19T03:25:14.080Z,7.88
2023-05-19T03:26:14.095Z,7.85
2023-05-19T03:27:14.077Z,7.85
2023-05-19T03:28:14.040Z,7.85
2023-05-19T03:29:14.050Z,7.87
2023-05-19T03:30:14.042Z,7.88
2023-05-19T03:31:14.004Z,7.88
2023-05-19T03:32:14.108Z,7.85
2023-05-19T03:33:14.126Z,7.87
2023-05-19T03:34:13.953Z,7.85
2023-05-19T03:35:13.969Z,7.85
2023-05-19T03:36:13.944Z,7.83
2023-05-19T03:37:13.925Z,7.82
2023-05-19T03:38:13.900Z,7.83
2023-05-19T03:39:13.902Z,7.80
2023-05-19T03:40:13.912Z,7.82
2023-05-19T03:41:13.881Z,7.83
2023-05-19T03:42:13.855Z,7.85
2023-05-19T03:43:13.843Z,7.83
2023-05-19T03:44:13.849Z,7.85
2023-05-19T03:45:13.845Z,7.83
2023-05-19T03:46:13.871Z,7.83
2023-05-19T03:47:13.782Z,7.83
2023-05-19T03:48:13.770Z,7.85
2023-05-19T03:49:13.767Z,7.83
2023-05-19T03:50:13.763Z,7.83
2023-05-19T03:51:13.795Z,7.87
2023-05-19T03:52:13.729Z,7.88
2023-05-19T03:53:13.710Z,7.90
2023-05-19T03:54:13.693Z,7.88
2023-05-19T03:55:13.727Z,7.91
2023-05-19T03:56:13.913Z,7.93
2023-05-19T03:57:13.663Z,7.94
2023-05-19T03:58:13.638Z,7.95
2023-05-19T03:59:13.628Z,7.97
2023-05-19T04:00:13.652Z,7.98
2023-05-19T04:01:13.592Z,8.00
2023-05-19T04:02:13.623Z,7.98
2023-05-19T04:03:13.767Z,7.97
2023-05-19T04:04:13.590Z,7.97
2023-05-19T04:05:13.598Z,7.98
2023-05-19T04:06:13.566Z,7.94
2023-05-19T04:07:13.517Z,7.91
2023-05-19T04:08:13.524Z,7.87
2023-05-19T04:09:13.532Z,7.88
2023-05-19T04:10:13.516Z,7.85
2023-05-19T04:11:13.481Z,7.85
2023-05-19T04:12:13.468Z,7.83
2023-05-19T04:13:13.436Z,7.83
2023-05-19T04:14:13.424Z,7.87
2023-05-19T04:15:13.468Z,7.88
2023-05-19T04:16:13.458Z,7.90
2023-05-19T04:17:13.396Z,7.93
2023-05-19T04:18:13.402Z,7.91
2023-05-19T04:19:13.459Z,7.91
2023-05-19T04:20:13.387Z,7.94
2023-05-19T04:21:13.357Z,7.94
2023-05-19T04:22:13.325Z,7.94
2023-05-19T04:23:13.344Z,7.95
2023-05-19T04:24:13.293Z,7.95
2023-05-19T04:25:13.307Z,8.00
2023-05-19T04:26:13.270Z,7.98
2023-05-19T04:27:13.257Z,7.98
2023-05-19T04:28:13.252Z,7.97
2023-05-19T04:29:13.229Z,7.97
2023-05-19T04:30:13.234Z,7.94
2023-05-19T04:31:13.315Z,7.88
2023-05-19T04:32:13.191Z,7.80
2023-05-19T04:33:13.247Z,7.79
2023-05-19T04:34:13.173Z,7.79
2023-05-19T04:35:13.159Z,7.80
2023-05-19T04:36:13.132Z,7.82
2023-05-19T04:37:13.120Z,7.82
2023-05-19T04:38:13.123Z,7.82
2023-05-19T04:39:13.112Z,7.82
2023-05-19T04:40:13.170Z,7.82
2023-05-19T04:41:13.075Z,7.82
2023-05-19T04:42:13.050Z,7.79
2023-05-19T04:43:13.075Z,7.82
2023-05-19T04:44:13.020Z,7.83
2023-05-19T04:45:13.011Z,7.83
2023-05-19T04:46:13.864Z,7.87
2023-05-19T04:47:12.992Z,7.87
2023-05-19T04:48:13.025Z,7.90
2023-05-19T04:49:12.962Z,7.91
2023-05-19T04:50:12.960Z,7.95
2023-05-19T04:51:12.943Z,7.94
2023-05-19T04:52:12.923Z,7.95
2023-05-19T04:53:12.903Z,7.93
2023-05-19T04:54:12.900Z,7.93
2023-05-19T04:55:12.900Z,7.94
2023-05-19T04:56:12.866Z,7.94
2023-05-19T04:57:12.835Z,7.98
2023-05-19T04:58:12.877Z,7.95
2023-05-19T04:59:12.833Z,8.00
2023-05-19T05:00:12.850Z,8.01
2023-05-19T05:01:12.800Z,8.03
2023-05-19T05:02:12.979Z,8.03
2023-05-19T05:03:12.970Z,8.05
2023-05-19T05:04:12.997Z,8.09
2023-05-19T05:05:12.746Z,8.12
2023-05-19T05:06:12.753Z,8.13
2023-05-19T05:07:12.740Z,8.15
2023-05-19T05:08:12.734Z,8.15
2023-05-19T05:09:12.687Z,8.16
2023-05-19T05:10:12.735Z,8.19
2023-05-19T05:11:12.661Z,8.20
2023-05-19T05:12:12.640Z,8.19
2023-05-19T05:13:12.666Z,8.23
2023-05-19T05:14:12.628Z,8.24
2023-05-19T05:15:12.611Z,8.27
2023-05-19T05:16:12.622Z,8.30
2023-05-19T05:17:12.612Z,8.34
2023-05-19T05:18:12.593Z,8.38
2023-05-19T05:19:12.609Z,8.42
2023-05-19T05:20:12.526Z,8.45
2023-05-19T05:21:12.556Z,8.49
2023-05-19T05:22:12.544Z,8.52
2023-05-19T05:23:12.650Z,8.52
2023-05-19T05:24:12.520Z,8.56
2023-05-19T05:25:12.490Z,8.58
2023-05-19T05:26:12.463Z,8.64
2023-05-19T05:27:12.466Z,8.67
2023-05-19T05:28:12.442Z,8.69
2023-05-19T05:29:12.452Z,8.73
2023-05-19T05:30:12.402Z,8.74
2023-05-19T05:31:12.516Z,8.76
2023-05-19T05:32:12.385Z,8.79
2023-05-19T05:33:12.442Z,8.81
2023-05-19T05:34:12.367Z,8.84
2023-05-19T05:35:12.328Z,8.84
2023-05-19T05:36:12.310Z,8.87
2023-05-19T05:37:13.894Z,8.88
2023-05-19T05:38:12.295Z,8.92
2023-05-19T05:39:12.273Z,8.92
2023-05-19T05:40:12.278Z,8.94
2023-05-19T05:41:12.253Z,8.94
2023-05-19T05:42:12.343Z,8.99
2023-05-19T05:43:12.221Z,9.03
2023-05-19T05:44:12.241Z,9.06
2023-05-19T05:45:12.215Z,9.10
2023-05-19T05:46:12.221Z,9.14
2023-05-19T05:47:12.194Z,9.18
2023-05-19T05:48:12.213Z,9.22
2023-05-19T05:49:12.136Z,9.25
2023-05-19T05:50:12.143Z,9.28
2023-05-19T05:51:12.120Z,9.31
2023-05-19T05:52:12.111Z,9.36
2023-05-19T05:53:12.089Z,9.40
2023-05-19T05:54:12.118Z,9.44
2023-05-19T05:55:12.102Z,9.44
2023-05-19T05:56:12.056Z,9.46
2023-05-19T05:57:12.032Z,9.46
2023-05-19T05:58:12.015Z,9.44
2023-05-19T05:59:12.006Z,9.47
2023-05-19T06:00:12.027Z,9.48
2023-05-19T06:01:12.013Z,9.50
2023-05-19T06:02:12.008Z,9.54
2023-05-19T06:03:12.068Z,9.58
2023-05-19T06:04:11.974Z,9.59
2023-05-19T06:05:11.975Z,9.61
2023-05-19T06:06:11.940Z,9.62
2023-05-19T06:07:11.919Z,9.65
2023-05-19T06:08:11.909Z,9.68
2023-05-19T06:09:11.885Z,9.69
2023-05-19T06:10:11.887Z,9.72
2023-05-19T06:11:11.854Z,9.77
2023-05-19T06:12:11.864Z,9.80
2023-05-19T06:13:11.854Z,9.83
2023-05-19T06:14:11.808Z,9.87
2023-05-19T06:15:11.801Z,9.91
2023-05-19T06:16:11.849Z,9.92
2023-05-19T06:17:11.775Z,9.94
2023-05-19T06:18:11.837Z,9.99
2023-05-19T06:19:11.797Z,10.02
2023-05-19T06:20:11.729Z,10.04
2023-05-19T06:21:11.722Z,10.07
2023-05-19T06:22:11.735Z,10.09
2023-05-19T06:23:11.706Z,10.13
2023-05-19T06:24:11.677Z,10.13
2023-05-19T06:25:11.668Z,10.17
2023-05-19T06:26:11.694Z,10.20
2023-05-19T06:27:11.640Z,10.22
2023-05-19T06:28:11.648Z,10.25
2023-05-19T06:29:11.627Z,10.30
2023-05-19T06:30:11.638Z,10.34
2023-05-19T06:31:11.630Z,10.38
2023-05-19T06:32:11.599Z,10.42
2023-05-19T06:33:11.581Z,10.46
2023-05-19T06:34:11.559Z,10.48
2023-05-19T06:35:11.553Z,10.51
2023-05-19T06:36:11.523Z,10.53
2023-05-19T06:37:11.543Z,10.56
2023-05-19T06:38:11.508Z,10.60
2023-05-19T06:39:11.483Z,10.67
2023-05-19T06:40:11.499Z,10.72
2023-05-19T06:41:11.445Z,10.79
2023-05-19T06:42:11.457Z,10.86
2023-05-19T06:43:11.451Z,10.90
2023-05-19T06:44:11.416Z,10.96
2023-05-19T06:45:11.391Z,11.04
2023-05-19T06:46:11.414Z,11.10
2023-05-19T06:47:11.426Z,11.15
2023-05-19T06:48:11.383Z,11.22
2023-05-19T06:49:11.352Z,11.25
2023-05-19T06:50:11.354Z,11.26
2023-05-19T06:51:11.378Z,11.23
2023-05-19T06:52:11.311Z,11.23
2023-05-19T06:53:11.333Z,11.25
2023-05-19T06:54:11.273Z,11.26
2023-05-19T06:55:11.258Z,11.25
2023-05-19T06:56:11.266Z,11.26
2023-05-19T06:57:11.272Z,11.27
2023-05-19T06:58:11.246Z,11.30
2023-05-19T06:59:11.249Z,11.33
2023-05-19T07:00:11.193Z,11.35
2023-05-19T07:01:11.236Z,11.33
2023-05-19T07:02:11.237Z,11.33
2023-05-19T07:03:11.287Z,11.33
2023-05-19T07:04:11.216Z,11.36
2023-05-19T07:05:11.141Z,11.40
2023-05-19T07:06:11.153Z,11.41
2023-05-19T07:07:11.116Z,11.45
2023-05-19T07:08:11.118Z,11.51
2023-05-19T07:09:11.070Z,11.54
2023-05-19T07:10:11.084Z,11.59
2023-05-19T07:11:11.044Z,11.65
2023-05-19T07:12:11.037Z,11.69
2023-05-19T07:13:11.012Z,11.73
2023-05-19T07:14:11.036Z,11.78
2023-05-19T07:15:10.997Z,11.84
2023-05-19T07:16:11.051Z,11.87
2023-05-19T07:17:10.968Z,11.91
2023-05-19T07:18:11.007Z,11.95
2023-05-19T07:19:11.022Z,12.02
2023-05-19T07:20:10.947Z,12.04
2023-05-19T07:21:10.942Z,12.06
2023-05-19T07:22:10.899Z,12.07
2023-05-19T07:23:10.910Z,12.10
2023-05-19T07:24:10.874Z,12.17
2023-05-19T07:25:10.865Z,12.20
2023-05-19T07:26:10.879Z,12.21
2023-05-19T07:27:10.850Z,12.22
2023-05-19T07:28:10.913Z,12.25
2023-05-19T07:29:10.813Z,12.29
2023-05-19T07:30:10.803Z,12.35
2023-05-19T07:31:10.777Z,12.37
2023-05-19T07:32:10.788Z,12.39
2023-05-19T07:33:10.902Z,12.40
2023-05-19T07:34:10.760Z,12.40
2023-05-19T07:35:10.719Z,12.40
2023-05-19T07:36:10.721Z,12.40
2023-05-19T07:37:10.694Z,12.37
2023-05-19T07:38:10.693Z,12.40
2023-05-19T07:39:10.733Z,12.42
2023-05-19T07:40:10.656Z,12.45
2023-05-19T07:41:10.683Z,12.43
2023-05-19T07:42:10.627Z,12.49
2023-05-19T07:43:10.626Z,12.50
2023-05-19T07:44:10.612Z,12.55
2023-05-19T07:45:10.588Z,12.60
2023-05-19T07:46:10.671Z,12.62
2023-05-19T07:47:10.569Z,12.67
2023-05-19T07:48:10.605Z,12.70
2023-05-19T07:49:10.568Z,12.68
2023-05-19T07:50:10.541Z,12.70
2023-05-19T07:51:10.518Z,12.72
2023-05-19T07:52:10.493Z,12.73
2023-05-19T07:53:10.494Z,12.73
2023-05-19T07:54:10.488Z,12.78
2023-05-19T07:55:10.473Z,12.79
2023-05-19T07:56:10.466Z,12.80
2023-05-19T07:57:10.423Z,12.79
2023-05-19T07:58:10.449Z,12.82
2023-05-19T07:59:10.414Z,12.82
2023-05-19T08:00:10.398Z,12.86
2023-05-19T08:01:10.378Z,12.91
2023-05-19T08:02:10.387Z,12.94
2023-05-19T08:03:10.501Z,13.00
2023-05-19T08:04:12.709Z,13.04
2023-05-19T08:05:10.352Z,13.05
2023-05-19T08:06:10.322Z,13.11
2023-05-19T08:07:10.331Z,13.12
2023-05-19T08:08:10.268Z,13.16
2023-05-19T08:09:10.263Z,13.19
2023-05-19T08:10:10.247Z,13.28
2023-05-19T08:11:10.236Z,13.35
2023-05-19T08:12:10.251Z,13.46
2023-05-19T08:13:10.237Z,13.52
2023-05-19T08:14:10.204Z,13.54
2023-05-19T08:15:10.225Z,13.63
2023-05-19T08:16:10.226Z,13.65
2023-05-19T08:17:10.235Z,13.72
2023-05-19T08:18:10.229Z,13.81
2023-05-19T08:19:10.185Z,13.86
2023-05-19T08:20:10.229Z,13.87
2023-05-19T08:21:10.123Z,13.89
2023-05-19T08:22:10.096Z,13.92
2023-05-19T08:23:10.100Z,13.95
2023-05-19T08:24:10.112Z,13.97
2023-05-19T08:25:10.083Z,14.00
2023-05-19T08:26:10.101Z,14.04
2023-05-19T08:27:10.037Z,14.07
2023-05-19T08:28:10.015Z,14.10
2023-05-19T08:29:10.038Z,14.12
2023-05-19T08:30:09.982Z,14.14
2023-05-19T08:31:09.987Z,14.15
2023-05-19T08:32:12.964Z,14.14
2023-05-19T08:33:10.065Z,14.18
2023-05-19T08:34:09.963Z,14.23
2023-05-19T08:35:09.923Z,14.29
2023-05-19T08:36:09.903Z,14.35
2023-05-19T08:37:09.916Z,14.43
2023-05-19T08:38:09.916Z,14.48
2023-05-19T08:39:09.905Z,14.55
2023-05-19T08:40:09.871Z,14.62
2023-05-19T08:41:09.841Z,14.66
2023-05-19T08:42:09.902Z,14.73
2023-05-19T08:43:09.828Z,14.81
2023-05-19T08:44:09.811Z,14.82
2023-05-19T08:45:09.845Z,14.85
2023-05-19T08:46:09.822Z,14.85
2023-05-19T08:47:09.871Z,14.84
2023-05-19T08:48:09.774Z,14.84
2023-05-19T08:49:09.763Z,14.85
2023-05-19T08:50:09.725Z,14.85
2023-05-19T08:51:09.719Z,14.84
2023-05-19T08:52:09.699Z,14.84
2023-05-19T08:53:21.082Z,14.85
2023-05-19T08:54:09.693Z,14.88
2023-05-19T08:55:09.686Z,14.91
2023-05-19T08:56:09.656Z,14.92
2023-05-19T08:57:09.663Z,14.92
2023-05-19T08:58:09.650Z,14.91
2023-05-19T08:59:09.600Z,14.96
2023-05-19T09:00:09.607Z,15.03
2023-05-19T09:01:09.773Z,15.04
2023-05-19T09:02:09.564Z,15.03
2023-05-19T09:03:18.153Z,15.06
2023-05-19T09:04:09.645Z,15.07
2023-05-19T09:05:09.672Z,15.09
2023-05-19T09:06:09.588Z,15.10
2023-05-19T09:07:09.496Z,15.15
2023-05-19T09:08:09.476Z,15.15
2023-05-19T09:09:09.464Z,15.18
2023-05-19T09:10:09.468Z,15.19
2023-05-19T09:11:09.477Z,15.24
2023-05-19T09:12:09.426Z,15.27
2023-05-19T09:13:09.442Z,15.25
2023-05-19T09:14:09.406Z,15.25
2023-05-19T09:15:09.426Z,15.27
2023-05-19T09:16:09.401Z,15.29
2023-05-19T09:17:09.480Z,15.28
2023-05-19T09:18:09.383Z,15.28
2023-05-19T09:19:09.386Z,15.29
2023-05-19T09:20:09.316Z,15.29
2023-05-19T09:21:09.348Z,15.35
2023-05-19T09:22:09.325Z,15.39
2023-05-19T09:23:09.302Z,15.40
2023-05-19T09:24:09.278Z,15.43
2023-05-19T09:25:09.273Z,15.44
2023-05-19T09:26:09.271Z,15.43
2023-05-19T09:27:09.224Z,15.42
2023-05-19T09:28:09.215Z,15.36
2023-05-19T09:29:09.220Z,15.33
2023-05-19T09:30:09.202Z,15.31
2023-05-19T09:31:09.187Z,15.33
2023-05-19T09:32:09.200Z,15.37
2023-05-19T09:33:09.210Z,15.40
2023-05-19T09:34:09.144Z,15.47
2023-05-19T09:35:09.138Z,15.57
2023-05-19T09:36:09.130Z,15.64
2023-05-19T09:37:09.110Z,15.76
2023-05-19T09:38:09.119Z,15.82
2023-05-19T09:39:09.069Z,15.88
2023-05-19T09:40:10.062Z,15.95
2023-05-19T09:41:09.154Z,15.95
2023-05-19T09:42:09.060Z,15.97
2023-05-19T09:43:09.018Z,16.01
2023-05-19T09:44:09.023Z,16.05
2023-05-19T09:45:08.982Z,16.13
2023-05-19T09:46:10.535Z,16.23
2023-05-19T09:47:08.944Z,16.31
2023-05-19T09:48:09.007Z,16.31
2023-05-19T09:49:08.940Z,16.31
2023-05-19T09:50:08.930Z,16.29
2023-05-19T09:51:08.904Z,16.28
2023-05-19T09:52:10.007Z,16.24
2023-05-19T09:53:08.882Z,16.24
2023-05-19T09:54:08.854Z,16.26
2023-05-19T09:55:08.889Z,16.28
2023-05-19T09:56:08.884Z,16.24
2023-05-19T09:57:08.996Z,16.23
2023-05-19T09:58:09.606Z,16.23
2023-05-19T09:59:08.807Z,16.21
2023-05-19T10:00:08.796Z,16.13
2023-05-19T10:01:08.797Z,16.10
2023-05-19T10:02:08.792Z,16.09
2023-05-19T10:03:08.811Z,16.09
2023-05-19T10:04:08.720Z,16.12
2023-05-19T10:05:08.787Z,16.21
2023-05-19T10:06:08.730Z,16.32
2023-05-19T10:07:08.710Z,16.39
2023-05-19T10:08:08.696Z,16.49
2023-05-19T10:09:08.648Z,16.56
2023-05-19T10:10:08.748Z,16.66
2023-05-19T10:11:08.628Z,16.76
2023-05-19T10:12:08.653Z,16.90
2023-05-19T10:13:09.537Z,16.99
2023-05-19T10:14:08.606Z,17.05
2023-05-19T10:15:08.572Z,17.12
2023-05-19T10:16:08.640Z,17.20
2023-05-19T10:17:08.590Z,17.23
2023-05-19T10:18:08.651Z,17.26
2023-05-19T10:19:08.571Z,17.24
2023-05-19T10:20:08.505Z,17.16
2023-05-19T10:21:08.547Z,17.15
2023-05-19T10:22:08.481Z,17.11
2023-05-19T10:23:08.490Z,17.12
2023-05-19T10:24:08.471Z,17.22
2023-05-19T10:25:08.468Z,17.30
2023-05-19T10:26:08.424Z,17.38
2023-05-19T10:27:08.429Z,17.41
2023-05-19T10:28:08.419Z,17.51
2023-05-19T10:29:08.421Z,17.59
2023-05-19T10:30:10.836Z,17.70
2023-05-19T10:31:08.384Z,17.72
2023-05-19T10:32:08.413Z,17.74
2023-05-19T10:33:08.366Z,17.76
2023-05-19T10:34:08.351Z,17.71
2023-05-19T10:35:08.322Z,17.67
2023-05-19T10:36:08.311Z,17.67
2023-05-19T10:37:08.301Z,17.72
2023-05-19T10:38:08.282Z,17.80
2023-05-19T10:39:08.274Z,17.90
2023-05-19T10:40:08.257Z,18.03
2023-05-19T10:41:08.256Z,18.16
2023-05-19T10:42:08.272Z,18.25
2023-05-19T10:43:08.189Z,18.33
2023-05-19T10:44:08.195Z,18.41
2023-05-19T10:45:08.179Z,18.50
2023-05-19T10:46:08.178Z,18.63
2023-05-19T10:47:08.243Z,18.73
2023-05-19T10:48:08.178Z,18.81
2023-05-19T10:49:08.125Z,18.81
2023-05-19T10:50:08.206Z,18.83
2023-05-19T10:51:08.135Z,18.84
2023-05-19T10:52:08.114Z,18.84
2023-05-19T10:53:08.087Z,18.81
2023-05-19T10:54:08.057Z,18.78
2023-05-19T10:55:08.065Z,18.66
2023-05-19T10:56:08.067Z,18.55
2023-05-19T10:57:08.032Z,18.49
2023-05-19T10:58:08.044Z,18.38
2023-05-19T10:59:08.025Z,18.22
2023-05-19T11:00:08.008Z,18.07
2023-05-19T11:01:08.010Z,17.97
2023-05-19T11:02:08.196Z,17.95
2023-05-19T11:03:08.165Z,17.94
2023-05-19T11:04:08.083Z,17.90
2023-05-19T11:05:07.927Z,17.90
2023-05-19T11:06:07.923Z,17.94
2023-05-19T11:07:07.886Z,17.94
2023-05-19T11:08:07.871Z,17.90
2023-05-19T11:09:07.876Z,17.92
2023-05-19T11:10:07.847Z,17.98
2023-05-19T11:11:07.828Z,18.01
2023-05-19T11:12:08.027Z,18.01
2023-05-19T11:13:07.804Z,17.92
2023-05-19T11:14:07.816Z,17.87
2023-05-19T11:15:07.847Z,17.85
2023-05-19T11:16:07.836Z,17.74
2023-05-19T11:17:07.867Z,17.63
2023-05-19T11:18:07.782Z,17.54
2023-05-19T11:19:07.874Z,17.54
2023-05-19T11:20:07.737Z,17.52
2023-05-19T11:21:07.735Z,17.56
2023-05-19T11:22:07.710Z,17.57
2023-05-19T11:23:07.740Z,17.54
2023-05-19T11:24:07.735Z,17.52
2023-05-19T11:25:08.572Z,17.52
2023-05-19T11:26:07.676Z,17.51
2023-05-19T11:27:07.630Z,17.48
2023-05-19T11:28:07.610Z,17.51
2023-05-19T11:29:07.626Z,17.48
2023-05-19T11:30:07.597Z,17.48
2023-05-19T11:31:07.576Z,17.44
2023-05-19T11:32:07.596Z,17.42
2023-05-19T11:33:07.616Z,17.42
2023-05-19T11:34:07.534Z,17.44
2023-05-19T11:35:07.546Z,17.41
2023-05-19T11:36:07.511Z,17.41
2023-05-19T11:37:07.503Z,17.45
2023-05-19T11:38:07.476Z,17.63
2023-05-19T11:39:07.530Z,17.79
2023-05-19T11:40:07.504Z,17.92
2023-05-19T11:41:07.427Z,17.89
2023-05-19T11:42:07.460Z,17.83
2023-05-19T11:43:07.394Z,17.83
2023-05-19T11:44:07.383Z,17.86
2023-05-19T11:45:07.388Z,17.92
2023-05-19T11:46:07.449Z,17.95
2023-05-19T11:47:07.341Z,17.94
2023-05-19T11:48:07.440Z,17.89
2023-05-19T11:49:07.314Z,17.89
2023-05-19T11:50:07.414Z,17.83
2023-05-19T11:51:07.337Z,17.80
2023-05-19T11:52:07.318Z,17.74
2023-05-19T11:53:07.273Z,17.71
2023-05-19T11:54:07.293Z,17.52
2023-05-19T11:55:07.252Z,17.45
2023-05-19T11:56:07.233Z,17.38
2023-05-19T11:57:07.253Z,17.30
2023-05-19T11:58:07.218Z,17.27
2023-05-19T11:59:07.204Z,17.22
2023-05-19T12:00:07.180Z,17.20
2023-05-19T12:01:07.174Z,17.20
2023-05-19T12:02:07.195Z,17.19
2023-05-19T12:03:07.316Z,17.14
2023-05-19T12:04:07.214Z,17.11
2023-05-19T12:05:07.146Z,17.02
2023-05-19T12:06:07.139Z,16.99
2023-05-19T12:07:07.101Z,16.99
2023-05-19T12:08:07.073Z,16.96
2023-05-19T12:09:07.083Z,16.93
2023-05-19T12:10:07.059Z,16.96
2023-05-19T12:11:07.070Z,17.02
2023-05-19T12:12:07.015Z,17.08
2023-05-19T12:13:07.006Z,17.09
2023-05-19T12:14:07.021Z,17.09
2023-05-19T12:15:07.001Z,17.14
2023-05-19T12:16:06.982Z,17.16
2023-05-19T12:17:06.950Z,17.22
2023-05-19T12:18:06.974Z,17.22
2023-05-19T12:19:06.944Z,17.15
2023-05-19T12:20:06.929Z,17.15
2023-05-19T12:21:06.908Z,17.11
2023-05-19T12:22:06.876Z,17.09
2023-05-19T12:23:06.934Z,17.06
2023-05-19T12:24:06.849Z,16.99
2023-05-19T12:25:06.862Z,16.96
2023-05-19T12:26:06.834Z,16.96
2023-05-19T12:27:06.824Z,16.94
2023-05-19T12:28:06.831Z,16.94
2023-05-19T12:29:06.815Z,16.89
2023-05-19T12:30:06.781Z,16.90
2023-05-19T12:31:06.771Z,16.91
2023-05-19T12:32:06.868Z,16.84
2023-05-19T12:33:06.783Z,16.79
2023-05-19T12:34:06.728Z,16.81
2023-05-19T12:35:06.719Z,16.86
2023-05-19T12:36:06.706Z,16.86
2023-05-19T12:37:06.723Z,16.91
2023-05-19T12:38:06.765Z,16.91
2023-05-19T12:39:06.660Z,16.93
2023-05-19T12:40:06.665Z,16.97
2023-05-19T12:41:06.657Z,17.06
2023-05-19T12:42:06.611Z,17.08
2023-05-19T12:43:06.611Z,17.09
2023-05-19T12:44:06.605Z,17.14
2023-05-19T12:45:06.576Z,17.12
2023-05-19T12:46:06.639Z,17.05
2023-05-19T12:47:06.613Z,17.01
2023-05-19T12:48:06.916Z,17.09
2023-05-19T12:49:06.532Z,17.15
2023-05-19T12:50:06.509Z,17.22
2023-05-19T12:51:06.505Z,17.27
2023-05-19T12:52:11.849Z,17.30
2023-05-19T12:53:06.500Z,17.27
2023-05-19T12:54:06.500Z,17.33
2023-05-19T12:55:06.565Z,17.38
2023-05-19T12:56:06.420Z,17.41
2023-05-19T12:57:06.434Z,17.45
2023-05-19T12:58:06.468Z,17.45
2023-05-19T12:59:06.418Z,17.51
2023-05-19T13:00:06.435Z,17.52
2023-05-19T13:01:06.483Z,17.63
2023-05-19T13:02:06.613Z,17.72
2023-05-19T13:03:06.657Z,17.86
2023-05-19T13:04:06.668Z,17.94
2023-05-19T13:05:06.316Z,18.01